Hovedside
METAR-TAF:

METAR-TAF

Lufthavner :

Bromma lufthavn

Stockholm, Sverige

breddegrad: 59-21N, lengdegrad: 017-57E, høyde over havet: 14 m

Gjeldene værobservasjon

Denne rapporten ble laget for 42 minutter siden, klokken 16:50 UTC
Vind 4 kt fra Sørøst
Temperatur 10°C
Luftfuktighet 93%
Trykk 1008 hPa
Sikt 10 km eller mer
Brutte skyer i en høyde av 4300 ft

METAR: ESSB 181650Z 14004KT 9999 BKN043 10/09 Q1008

Tid: 19:32 (17:32 UTC)

Varsel

Denne rapporten ble laget for 3 timer og 2 minutter siden, klokken 14:30 UTC
Varsel gyldig fra 18. klokken 15 UTC til 18. klokken 20 UTC
Vind 5 kt fra Vest-sørvest
Sikt 10 km eller mer
Spredte skyer i en høyde av 2000 ft
Sannsynlighet 40%
fra 18. klokken 18 UTC til 18. klokken 20 UTC
Sikt: 4000 m
Brutte skyer i en høyde av 700 ft
regn

TAF: ESSB 181430Z 1815/1820 24005KT 9999 SCT020 PROB40 1818/1820 4000 RA BKN007

Værobservasjoner og værvarsel for over 4000 flyplasser (METAR- og TAF-rapporter).

Tilgjengelige stasjoner er representert av de røde og gule prikkene på kartet.

Hold musepekeren over prikken for å se navnet på stasjonen.

Klikk så for å se værobservasjoner og -varsler.

For å forandre kartet kan du klikke på den grønne knappen med svart kryss for å zoome inn, på den grønne knappen med strek for å zoome ut, eller på de grønne pilene for å se tilstøtende kart.


METAR-TAF: